sensor_id;sensor_type;location;lat;lon;timestamp;P1;durP1;ratioP1;P2;durP2;ratioP2
21721;SDS011;11023;48.274;7.794;2022-09-30T00:01:46;9.27;;;5.90;;
21721;SDS011;11023;48.274;7.794;2022-09-30T00:04:16;10.23;;;6.20;;
21721;SDS011;11023;48.274;7.794;2022-09-30T00:06:43;9.77;;;6.35;;
21721;SDS011;11023;48.274;7.794;2022-09-30T00:09:09;11.98;;;6.82;;
21721;SDS011;11023;48.274;7.794;2022-09-30T00:11:37;15.07;;;7.07;;
21721;SDS011;11023;48.274;7.794;2022-09-30T00:14:04;10.23;;;6.65;;
21721;SDS011;11023;48.274;7.794;2022-09-30T00:16:33;7.50;;;6.18;;
21721;SDS011;11023;48.274;7.794;2022-09-30T00:19:00;8.05;;;7.15;;
21721;SDS011;11023;48.274;7.794;2022-09-30T00:21:28;12.43;;;7.85;;
21721;SDS011;11023;48.274;7.794;2022-09-30T00:23:54;8.60;;;6.90;;
21721;SDS011;11023;48.274;7.794;2022-09-30T00:26:20;8.20;;;6.85;;
21721;SDS011;11023;48.274;7.794;2022-09-30T00:28:52;9.70;;;6.70;;
21721;SDS011;11023;48.274;7.794;2022-09-30T00:31:20;8.32;;;6.20;;
21721;SDS011;11023;48.274;7.794;2022-09-30T00:33:47;9.07;;;6.45;;
21721;SDS011;11023;48.274;7.794;2022-09-30T00:36:38;8.45;;;6.25;;
21721;SDS011;11023;48.274;7.794;2022-09-30T00:39:08;7.30;;;6.60;;
21721;SDS011;11023;48.274;7.794;2022-09-30T00:41:36;11.02;;;7.07;;
21721;SDS011;11023;48.274;7.794;2022-09-30T00:44:38;7.95;;;7.15;;
21721;SDS011;11023;48.274;7.794;2022-09-30T00:50:09;10.48;;;6.72;;
21721;SDS011;11023;48.274;7.794;2022-09-30T00:52:40;11.25;;;7.30;;
21721;SDS011;11023;48.274;7.794;2022-09-30T00:55:12;9.18;;;7.63;;
21721;SDS011;11023;48.274;7.794;2022-09-30T00:57:56;9.38;;;6.97;;
21721;SDS011;11023;48.274;7.794;2022-09-30T01:00:23;12.10;;;7.03;;
21721;SDS011;11023;48.274;7.794;2022-09-30T01:02:50;7.30;;;6.45;;
21721;SDS011;11023;48.274;7.794;2022-09-30T01:05:16;8.35;;;7.07;;
21721;SDS011;11023;48.274;7.794;2022-09-30T01:07:42;10.38;;;7.50;;
21721;SDS011;11023;48.274;7.794;2022-09-30T01:10:08;13.20;;;7.72;;
21721;SDS011;11023;48.274;7.794;2022-09-30T01:12:33;19.50;;;12.23;;
21721;SDS011;11023;48.274;7.794;2022-09-30T01:14:59;18.15;;;11.32;;
21721;SDS011;11023;48.274;7.794;2022-09-30T01:17:30;12.65;;;9.18;;
21721;SDS011;11023;48.274;7.794;2022-09-30T01:29:06;10.63;;;7.65;;
21721;SDS011;11023;48.274;7.794;2022-09-30T01:40:19;13.60;;;8.60;;
21721;SDS011;11023;48.274;7.794;2022-09-30T01:51:08;9.75;;;8.60;;
21721;SDS011;11023;48.274;7.794;2022-09-30T01:56:38;14.35;;;11.27;;
21721;SDS011;11023;48.274;7.794;2022-09-30T02:01:54;12.05;;;9.73;;
21721;SDS011;11023;48.274;7.794;2022-09-30T02:04:44;16.38;;;11.68;;
21721;SDS011;11023;48.274;7.794;2022-09-30T02:07:21;15.00;;;11.32;;
21721;SDS011;11023;48.274;7.794;2022-09-30T02:09:55;15.03;;;11.60;;
21721;SDS011;11023;48.274;7.794;2022-09-30T02:12:26;11.18;;;9.90;;
21721;SDS011;11023;48.274;7.794;2022-09-30T02:15:05;15.90;;;11.05;;
21721;SDS011;11023;48.274;7.794;2022-09-30T02:17:39;11.68;;;10.25;;
21721;SDS011;11023;48.274;7.794;2022-09-30T02:20:11;13.63;;;11.50;;
21721;SDS011;11023;48.274;7.794;2022-09-30T02:22:45;14.15;;;11.25;;
21721;SDS011;11023;48.274;7.794;2022-09-30T02:25:35;14.18;;;11.02;;
21721;SDS011;11023;48.274;7.794;2022-09-30T02:28:31;13.77;;;10.32;;
21721;SDS011;11023;48.274;7.794;2022-09-30T02:31:01;14.38;;;10.65;;
21721;SDS011;11023;48.274;7.794;2022-09-30T02:33:40;16.08;;;11.13;;
21721;SDS011;11023;48.274;7.794;2022-09-30T02:36:21;15.13;;;10.95;;
21721;SDS011;11023;48.274;7.794;2022-09-30T02:39:25;16.30;;;12.90;;
21721;SDS011;11023;48.274;7.794;2022-09-30T02:42:21;13.48;;;11.70;;
21721;SDS011;11023;48.274;7.794;2022-09-30T02:44:53;11.35;;;10.07;;
21721;SDS011;11023;48.274;7.794;2022-09-30T02:47:31;14.48;;;10.77;;
21721;SDS011;11023;48.274;7.794;2022-09-30T02:50:24;9.73;;;8.73;;
21721;SDS011;11023;48.274;7.794;2022-09-30T02:55:53;13.95;;;9.38;;
21721;SDS011;11023;48.274;7.794;2022-09-30T02:58:42;10.73;;;9.63;;
21721;SDS011;11023;48.274;7.794;2022-09-30T03:01:10;11.65;;;9.45;;
21721;SDS011;11023;48.274;7.794;2022-09-30T03:03:48;12.98;;;10.35;;
21721;SDS011;11023;48.274;7.794;2022-09-30T03:06:23;11.90;;;9.45;;
21721;SDS011;11023;48.274;7.794;2022-09-30T03:08:50;13.40;;;9.30;;
21721;SDS011;11023;48.274;7.794;2022-09-30T03:11:18;13.68;;;9.48;;
21721;SDS011;11023;48.274;7.794;2022-09-30T03:30:24;10.43;;;9.25;;
21721;SDS011;11023;48.274;7.794;2022-09-30T03:32:55;11.75;;;9.02;;
21721;SDS011;11023;48.274;7.794;2022-09-30T03:38:01;12.15;;;8.88;;
21721;SDS011;11023;48.274;7.794;2022-09-30T03:40:42;13.02;;;9.95;;
21721;SDS011;11023;48.274;7.794;2022-09-30T03:43:15;13.50;;;10.20;;
21721;SDS011;11023;48.274;7.794;2022-09-30T03:48:42;11.00;;;9.68;;
21721;SDS011;11023;48.274;7.794;2022-09-30T03:51:10;11.98;;;9.65;;
21721;SDS011;11023;48.274;7.794;2022-09-30T03:53:39;12.45;;;10.13;;
21721;SDS011;11023;48.274;7.794;2022-09-30T03:56:06;12.15;;;9.50;;
21721;SDS011;11023;48.274;7.794;2022-09-30T03:58:31;12.68;;;10.00;;
21721;SDS011;11023;48.274;7.794;2022-09-30T04:00:58;12.70;;;9.70;;
21721;SDS011;11023;48.274;7.794;2022-09-30T04:03:24;12.35;;;10.00;;
21721;SDS011;11023;48.274;7.794;2022-09-30T04:05:51;14.88;;;10.90;;
21721;SDS011;11023;48.274;7.794;2022-09-30T04:08:18;14.02;;;10.48;;
21721;SDS011;11023;48.274;7.794;2022-09-30T04:10:44;12.52;;;9.82;;
21721;SDS011;11023;48.274;7.794;2022-09-30T04:13:10;14.90;;;10.23;;
21721;SDS011;11023;48.274;7.794;2022-09-30T04:15:37;14.90;;;10.30;;
21721;SDS011;11023;48.274;7.794;2022-09-30T04:18:03;9.93;;;8.77;;
21721;SDS011;11023;48.274;7.794;2022-09-30T04:20:30;11.52;;;10.02;;
21721;SDS011;11023;48.274;7.794;2022-09-30T04:22:57;12.88;;;9.38;;
21721;SDS011;11023;48.274;7.794;2022-09-30T04:25:25;9.15;;;8.02;;
21721;SDS011;11023;48.274;7.794;2022-09-30T04:27:53;12.43;;;9.43;;
21721;SDS011;11023;48.274;7.794;2022-09-30T04:30:20;13.30;;;10.23;;
21721;SDS011;11023;48.274;7.794;2022-09-30T04:32:46;11.85;;;10.45;;
21721;SDS011;11023;48.274;7.794;2022-09-30T04:35:12;14.82;;;9.52;;
21721;SDS011;11023;48.274;7.794;2022-09-30T04:37:42;12.13;;;9.48;;
21721;SDS011;11023;48.274;7.794;2022-09-30T04:40:11;9.50;;;8.15;;
21721;SDS011;11023;48.274;7.794;2022-09-30T04:42:39;14.50;;;10.82;;
21721;SDS011;11023;48.274;7.794;2022-09-30T04:45:10;14.30;;;10.30;;
21721;SDS011;11023;48.274;7.794;2022-09-30T04:47:37;12.68;;;10.25;;
21721;SDS011;11023;48.274;7.794;2022-09-30T04:50:03;15.80;;;10.07;;
21721;SDS011;11023;48.274;7.794;2022-09-30T04:52:30;12.30;;;9.70;;
21721;SDS011;11023;48.274;7.794;2022-09-30T04:54:55;15.85;;;9.82;;
21721;SDS011;11023;48.274;7.794;2022-09-30T04:57:22;15.13;;;10.18;;
21721;SDS011;11023;48.274;7.794;2022-09-30T04:59:48;11.63;;;8.93;;
21721;SDS011;11023;48.274;7.794;2022-09-30T05:02:15;14.43;;;10.52;;
21721;SDS011;11023;48.274;7.794;2022-09-30T05:04:41;16.38;;;10.90;;
21721;SDS011;11023;48.274;7.794;2022-09-30T05:07:06;13.43;;;12.02;;
21721;SDS011;11023;48.274;7.794;2022-09-30T05:09:33;16.13;;;11.13;;
21721;SDS011;11023;48.274;7.794;2022-09-30T05:12:00;13.02;;;10.32;;
21721;SDS011;11023;48.274;7.794;2022-09-30T05:14:27;14.55;;;10.98;;
21721;SDS011;11023;48.274;7.794;2022-09-30T05:16:53;14.07;;;10.45;;
21721;SDS011;11023;48.274;7.794;2022-09-30T05:19:19;14.18;;;11.18;;
21721;SDS011;11023;48.274;7.794;2022-09-30T05:21:45;14.13;;;10.98;;
21721;SDS011;11023;48.274;7.794;2022-09-30T05:24:11;12.40;;;10.27;;
21721;SDS011;11023;48.274;7.794;2022-09-30T05:26:39;12.38;;;10.20;;
21721;SDS011;11023;48.274;7.794;2022-09-30T05:29:05;12.32;;;10.07;;
21721;SDS011;11023;48.274;7.794;2022-09-30T05:31:31;11.60;;;9.30;;
21721;SDS011;11023;48.274;7.794;2022-09-30T05:33:57;14.55;;;9.88;;
21721;SDS011;11023;48.274;7.794;2022-09-30T05:36:23;9.32;;;8.13;;
21721;SDS011;11023;48.274;7.794;2022-09-30T05:38:49;12.02;;;9.45;;
21721;SDS011;11023;48.274;7.794;2022-09-30T05:41:16;11.13;;;9.93;;
21721;SDS011;11023;48.274;7.794;2022-09-30T05:43:44;11.55;;;9.13;;
21721;SDS011;11023;48.274;7.794;2022-09-30T05:46:12;10.60;;;9.50;;
21721;SDS011;11023;48.274;7.794;2022-09-30T05:48:38;10.82;;;9.25;;
21721;SDS011;11023;48.274;7.794;2022-09-30T05:51:04;14.80;;;9.25;;
21721;SDS011;11023;48.274;7.794;2022-09-30T05:53:31;10.38;;;9.27;;
21721;SDS011;11023;48.274;7.794;2022-09-30T05:55:59;10.32;;;9.07;;
21721;SDS011;11023;48.274;7.794;2022-09-30T05:58:24;9.63;;;8.20;;
21721;SDS011;11023;48.274;7.794;2022-09-30T06:00:51;9.20;;;8.10;;
21721;SDS011;11023;48.274;7.794;2022-09-30T06:03:17;12.68;;;7.97;;
21721;SDS011;11023;48.274;7.794;2022-09-30T06:05:44;9.15;;;8.27;;
21721;SDS011;11023;48.274;7.794;2022-09-30T06:08:10;9.68;;;6.82;;
21721;SDS011;11023;48.274;7.794;2022-09-30T06:10:39;8.45;;;7.57;;
21721;SDS011;11023;48.274;7.794;2022-09-30T06:13:06;10.07;;;7.50;;
21721;SDS011;11023;48.274;7.794;2022-09-30T06:15:32;8.00;;;6.70;;
21721;SDS011;11023;48.274;7.794;2022-09-30T06:18:03;7.90;;;7.13;;
21721;SDS011;11023;48.274;7.794;2022-09-30T06:20:29;6.85;;;6.10;;
21721;SDS011;11023;48.274;7.794;2022-09-30T06:22:57;9.00;;;8.10;;
21721;SDS011;11023;48.274;7.794;2022-09-30T06:25:24;9.18;;;7.18;;
21721;SDS011;11023;48.274;7.794;2022-09-30T06:27:50;11.07;;;7.97;;
21721;SDS011;11023;48.274;7.794;2022-09-30T06:30:15;9.05;;;7.55;;
21721;SDS011;11023;48.274;7.794;2022-09-30T06:32:41;10.82;;;9.00;;
21721;SDS011;11023;48.274;7.794;2022-09-30T06:35:08;12.70;;;9.68;;
21721;SDS011;11023;48.274;7.794;2022-09-30T06:37:34;18.83;;;14.20;;
21721;SDS011;11023;48.274;7.794;2022-09-30T06:40:02;18.67;;;15.25;;
21721;SDS011;11023;48.274;7.794;2022-09-30T06:42:30;19.75;;;14.07;;
21721;SDS011;11023;48.274;7.794;2022-09-30T06:44:56;18.33;;;13.07;;
21721;SDS011;11023;48.274;7.794;2022-09-30T06:47:22;15.40;;;12.32;;
21721;SDS011;11023;48.274;7.794;2022-09-30T06:49:48;17.58;;;13.30;;
21721;SDS011;11023;48.274;7.794;2022-09-30T06:52:17;17.08;;;14.30;;
21721;SDS011;11023;48.274;7.794;2022-09-30T06:54:44;18.83;;;13.40;;
21721;SDS011;11023;48.274;7.794;2022-09-30T06:57:12;15.80;;;13.98;;
21721;SDS011;11023;48.274;7.794;2022-09-30T06:59:38;14.32;;;12.30;;
21721;SDS011;11023;48.274;7.794;2022-09-30T07:02:03;13.52;;;11.35;;
21721;SDS011;11023;48.274;7.794;2022-09-30T07:04:29;10.90;;;9.63;;
21721;SDS011;11023;48.274;7.794;2022-09-30T07:06:56;11.20;;;9.80;;
21721;SDS011;11023;48.274;7.794;2022-09-30T07:09:21;14.57;;;10.82;;
21721;SDS011;11023;48.274;7.794;2022-09-30T07:11:47;12.98;;;10.57;;
21721;SDS011;11023;48.274;7.794;2022-09-30T07:14:13;12.50;;;10.52;;
21721;SDS011;11023;48.274;7.794;2022-09-30T07:16:40;11.25;;;9.63;;
21721;SDS011;11023;48.274;7.794;2022-09-30T07:19:06;10.85;;;9.00;;
21721;SDS011;11023;48.274;7.794;2022-09-30T07:21:36;11.38;;;8.95;;
21721;SDS011;11023;48.274;7.794;2022-09-30T07:24:02;12.88;;;8.70;;
21721;SDS011;11023;48.274;7.794;2022-09-30T07:26:28;13.80;;;8.73;;
21721;SDS011;11023;48.274;7.794;2022-09-30T07:28:55;11.95;;;9.77;;
21721;SDS011;11023;48.274;7.794;2022-09-30T07:31:22;11.00;;;8.75;;
21721;SDS011;11023;48.274;7.794;2022-09-30T07:33:50;14.88;;;10.45;;
21721;SDS011;11023;48.274;7.794;2022-09-30T07:36:17;10.73;;;9.45;;
21721;SDS011;11023;48.274;7.794;2022-09-30T07:38:47;13.00;;;10.23;;
21721;SDS011;11023;48.274;7.794;2022-09-30T07:41:17;11.77;;;9.88;;
21721;SDS011;11023;48.274;7.794;2022-09-30T07:43:46;10.23;;;9.05;;
21721;SDS011;11023;48.274;7.794;2022-09-30T07:46:14;11.45;;;9.80;;
21721;SDS011;11023;48.274;7.794;2022-09-30T07:48:47;11.95;;;9.68;;
21721;SDS011;11023;48.274;7.794;2022-09-30T07:51:18;11.38;;;10.00;;
21721;SDS011;11023;48.274;7.794;2022-09-30T07:53:48;12.80;;;10.10;;
21721;SDS011;11023;48.274;7.794;2022-09-30T07:56:16;16.58;;;9.98;;
21721;SDS011;11023;48.274;7.794;2022-09-30T07:58:43;13.90;;;9.57;;
21721;SDS011;11023;48.274;7.794;2022-09-30T08:01:10;16.13;;;10.80;;
21721;SDS011;11023;48.274;7.794;2022-09-30T08:03:36;12.30;;;10.57;;
21721;SDS011;11023;48.274;7.794;2022-09-30T08:06:07;12.63;;;10.30;;
21721;SDS011;11023;48.274;7.794;2022-09-30T08:08:35;13.38;;;10.38;;
21721;SDS011;11023;48.274;7.794;2022-09-30T08:11:01;11.02;;;9.82;;
21721;SDS011;11023;48.274;7.794;2022-09-30T08:13:28;12.70;;;10.60;;
21721;SDS011;11023;48.274;7.794;2022-09-30T08:15:53;11.43;;;9.73;;
21721;SDS011;11023;48.274;7.794;2022-09-30T08:18:19;21.75;;;19.02;;
21721;SDS011;11023;48.274;7.794;2022-09-30T08:20:45;12.52;;;8.63;;
21721;SDS011;11023;48.274;7.794;2022-09-30T08:23:10;11.38;;;10.27;;
21721;SDS011;11023;48.274;7.794;2022-09-30T08:25:36;9.40;;;8.20;;
21721;SDS011;11023;48.274;7.794;2022-09-30T08:28:02;9.65;;;8.43;;
21721;SDS011;11023;48.274;7.794;2022-09-30T08:30:27;7.93;;;7.13;;
21721;SDS011;11023;48.274;7.794;2022-09-30T08:32:53;8.75;;;7.60;;
21721;SDS011;11023;48.274;7.794;2022-09-30T08:35:19;7.85;;;7.07;;
21721;SDS011;11023;48.274;7.794;2022-09-30T08:37:45;10.77;;;7.78;;
21721;SDS011;11023;48.274;7.794;2022-09-30T08:40:16;9.82;;;7.22;;
21721;SDS011;11023;48.274;7.794;2022-09-30T08:53:36;11.63;;;9.30;;
21721;SDS011;11023;48.274;7.794;2022-09-30T08:56:05;11.50;;;7.97;;
21721;SDS011;11023;48.274;7.794;2022-09-30T08:58:40;9.40;;;8.40;;
21721;SDS011;11023;48.274;7.794;2022-09-30T09:04:01;11.73;;;9.57;;
21721;SDS011;11023;48.274;7.794;2022-09-30T09:06:30;10.35;;;9.05;;
21721;SDS011;11023;48.274;7.794;2022-09-30T09:09:09;9.82;;;7.85;;
21721;SDS011;11023;48.274;7.794;2022-09-30T09:17:10;12.77;;;8.60;;
21721;SDS011;11023;48.274;7.794;2022-09-30T09:19:51;12.45;;;10.88;;
21721;SDS011;11023;48.274;7.794;2022-09-30T09:22:26;13.45;;;10.40;;
21721;SDS011;11023;48.274;7.794;2022-09-30T09:24:53;13.68;;;9.48;;
21721;SDS011;11023;48.274;7.794;2022-09-30T09:27:22;19.58;;;15.55;;
21721;SDS011;11023;48.274;7.794;2022-09-30T09:30:06;20.73;;;16.20;;
21721;SDS011;11023;48.274;7.794;2022-09-30T09:32:36;21.30;;;14.43;;
21721;SDS011;11023;48.274;7.794;2022-09-30T09:35:12;19.35;;;14.68;;
21721;SDS011;11023;48.274;7.794;2022-09-30T09:41:03;16.25;;;13.48;;
21721;SDS011;11023;48.274;7.794;2022-09-30T09:51:45;20.48;;;15.98;;
21721;SDS011;11023;48.274;7.794;2022-09-30T09:54:30;20.05;;;15.15;;
21721;SDS011;11023;48.274;7.794;2022-09-30T09:57:08;17.10;;;14.52;;
21721;SDS011;11023;48.274;7.794;2022-09-30T10:03:11;20.10;;;16.15;;
21721;SDS011;11023;48.274;7.794;2022-09-30T10:05:58;18.60;;;14.30;;
21721;SDS011;11023;48.274;7.794;2022-09-30T10:08:25;19.75;;;15.15;;
21721;SDS011;11023;48.274;7.794;2022-09-30T10:13:25;21.70;;;17.60;;
21721;SDS011;11023;48.274;7.794;2022-09-30T10:15:54;22.92;;;16.60;;
21721;SDS011;11023;48.274;7.794;2022-09-30T10:18:24;20.63;;;16.38;;
21721;SDS011;11023;48.274;7.794;2022-09-30T10:20:56;20.88;;;15.88;;
21721;SDS011;11023;48.274;7.794;2022-09-30T10:23:28;19.85;;;15.95;;
21721;SDS011;11023;48.274;7.794;2022-09-30T10:31:16;19.65;;;14.85;;
21721;SDS011;11023;48.274;7.794;2022-09-30T10:36:38;20.60;;;16.77;;
21721;SDS011;11023;48.274;7.794;2022-09-30T10:39:26;19.85;;;15.60;;
21721;SDS011;11023;48.274;7.794;2022-09-30T10:42:20;21.38;;;14.90;;
21721;SDS011;11023;48.274;7.794;2022-09-30T10:44:48;17.98;;;14.85;;
21721;SDS011;11023;48.274;7.794;2022-09-30T10:47:19;17.20;;;14.57;;
21721;SDS011;11023;48.274;7.794;2022-09-30T10:52:24;19.08;;;13.88;;
21721;SDS011;11023;48.274;7.794;2022-09-30T10:54:56;16.17;;;13.43;;
21721;SDS011;11023;48.274;7.794;2022-09-30T10:57:41;16.38;;;12.85;;
21721;SDS011;11023;48.274;7.794;2022-09-30T11:02:51;16.70;;;14.40;;
21721;SDS011;11023;48.274;7.794;2022-09-30T11:05:23;21.17;;;14.20;;
21721;SDS011;11023;48.274;7.794;2022-09-30T11:10:37;15.43;;;11.88;;
21721;SDS011;11023;48.274;7.794;2022-09-30T11:16:03;13.32;;;11.27;;
21721;SDS011;11023;48.274;7.794;2022-09-30T11:23:56;14.18;;;11.63;;
21721;SDS011;11023;48.274;7.794;2022-09-30T11:32:21;13.52;;;11.27;;
21721;SDS011;11023;48.274;7.794;2022-09-30T11:34:58;14.40;;;12.00;;
21721;SDS011;11023;48.274;7.794;2022-09-30T11:40:34;16.00;;;13.00;;
21721;SDS011;11023;48.274;7.794;2022-09-30T11:43:33;15.65;;;11.25;;
21721;SDS011;11023;48.274;7.794;2022-09-30T11:46:19;12.18;;;10.05;;
21721;SDS011;11023;48.274;7.794;2022-09-30T11:54:42;17.77;;;12.77;;
21721;SDS011;11023;48.274;7.794;2022-09-30T11:57:28;15.80;;;12.40;;
21721;SDS011;11023;48.274;7.794;2022-09-30T12:02:49;13.65;;;11.48;;
21721;SDS011;11023;48.274;7.794;2022-09-30T12:05:31;17.42;;;11.80;;
21721;SDS011;11023;48.274;7.794;2022-09-30T12:11:12;12.63;;;10.38;;
21721;SDS011;11023;48.274;7.794;2022-09-30T12:13:41;12.95;;;10.48;;
21721;SDS011;11023;48.274;7.794;2022-09-30T12:16:13;15.80;;;10.35;;
21721;SDS011;11023;48.274;7.794;2022-09-30T12:24:38;12.43;;;9.27;;
21721;SDS011;11023;48.274;7.794;2022-09-30T12:30:19;11.80;;;8.82;;
21721;SDS011;11023;48.274;7.794;2022-09-30T12:38:46;8.82;;;6.75;;
21721;SDS011;11023;48.274;7.794;2022-09-30T12:49:25;8.57;;;6.97;;
21721;SDS011;11023;48.274;7.794;2022-09-30T12:51:54;11.93;;;8.13;;
21721;SDS011;11023;48.274;7.794;2022-09-30T12:54:32;8.18;;;7.28;;
21721;SDS011;11023;48.274;7.794;2022-09-30T12:57:03;11.75;;;8.07;;
21721;SDS011;11023;48.274;7.794;2022-09-30T12:59:33;8.55;;;6.88;;
21721;SDS011;11023;48.274;7.794;2022-09-30T13:02:03;9.95;;;7.45;;
21721;SDS011;11023;48.274;7.794;2022-09-30T13:04:37;7.95;;;6.25;;
21721;SDS011;11023;48.274;7.794;2022-09-30T13:07:15;11.00;;;5.88;;
21721;SDS011;11023;48.274;7.794;2022-09-30T13:10:30;7.63;;;4.75;;
21721;SDS011;11023;48.274;7.794;2022-09-30T13:12:46;5.55;;;5.05;;
21721;SDS011;11023;48.274;7.794;2022-09-30T13:17:54;5.03;;;3.83;;
21721;SDS011;11023;48.274;7.794;2022-09-30T13:20:52;6.82;;;4.57;;
21721;SDS011;11023;48.274;7.794;2022-09-30T13:24:02;6.78;;;4.45;;
21721;SDS011;11023;48.274;7.794;2022-09-30T13:31:28;3.83;;;3.13;;
21721;SDS011;11023;48.274;7.794;2022-09-30T13:42:39;4.50;;;3.47;;
21721;SDS011;11023;48.274;7.794;2022-09-30T13:47:38;7.18;;;4.25;;
21721;SDS011;11023;48.274;7.794;2022-09-30T13:50:15;6.63;;;3.40;;
21721;SDS011;11023;48.274;7.794;2022-09-30T13:52:50;5.57;;;3.20;;
21721;SDS011;11023;48.274;7.794;2022-09-30T13:55:20;7.78;;;3.10;;
21721;SDS011;11023;48.274;7.794;2022-09-30T14:01:17;5.57;;;3.20;;
21721;SDS011;11023;48.274;7.794;2022-09-30T14:06:15;4.38;;;3.17;;
21721;SDS011;11023;48.274;7.794;2022-09-30T14:08:53;3.60;;;2.40;;
21721;SDS011;11023;48.274;7.794;2022-09-30T14:22:07;4.47;;;1.38;;
21721;SDS011;11023;48.274;7.794;2022-09-30T14:24:38;1.80;;;1.20;;
21721;SDS011;11023;48.274;7.794;2022-09-30T14:32:28;2.60;;;1.33;;
21721;SDS011;11023;48.274;7.794;2022-09-30T14:34:56;2.50;;;1.80;;
21721;SDS011;11023;48.274;7.794;2022-09-30T14:37:26;4.05;;;1.70;;
21721;SDS011;11023;48.274;7.794;2022-09-30T14:39:54;3.47;;;1.60;;
21721;SDS011;11023;48.274;7.794;2022-09-30T14:42:25;2.95;;;1.38;;
21721;SDS011;11023;48.274;7.794;2022-09-30T14:44:55;1.55;;;1.02;;
21721;SDS011;11023;48.274;7.794;2022-09-30T14:47:28;2.92;;;1.20;;
21721;SDS011;11023;48.274;7.794;2022-09-30T14:49:59;2.42;;;1.13;;
21721;SDS011;11023;48.274;7.794;2022-09-30T14:52:36;2.40;;;1.25;;
21721;SDS011;11023;48.274;7.794;2022-09-30T15:00:49;1.25;;;1.15;;
21721;SDS011;11023;48.274;7.794;2022-09-30T15:03:24;3.53;;;1.15;;
21721;SDS011;11023;48.274;7.794;2022-09-30T15:05:52;1.60;;;1.10;;
21721;SDS011;11023;48.274;7.794;2022-09-30T15:08:19;1.23;;;0.80;;
21721;SDS011;11023;48.274;7.794;2022-09-30T15:10:53;1.17;;;0.70;;
21721;SDS011;11023;48.274;7.794;2022-09-30T15:13:26;2.33;;;0.70;;
21721;SDS011;11023;48.274;7.794;2022-09-30T15:15:55;1.50;;;0.70;;
21721;SDS011;11023;48.274;7.794;2022-09-30T15:21:07;1.20;;;0.70;;
21721;SDS011;11023;48.274;7.794;2022-09-30T15:23:42;2.70;;;0.70;;
21721;SDS011;11023;48.274;7.794;2022-09-30T15:26:12;1.15;;;0.80;;
21721;SDS011;11023;48.274;7.794;2022-09-30T15:28:38;2.83;;;0.90;;
21721;SDS011;11023;48.274;7.794;2022-09-30T15:31:04;1.55;;;0.90;;
21721;SDS011;11023;48.274;7.794;2022-09-30T15:33:32;2.42;;;0.90;;
21721;SDS011;11023;48.274;7.794;2022-09-30T15:36:06;5.30;;;1.10;;
21721;SDS011;11023;48.274;7.794;2022-09-30T15:38:38;2.35;;;1.02;;
21721;SDS011;11023;48.274;7.794;2022-09-30T15:41:07;2.70;;;1.00;;
21721;SDS011;11023;48.274;7.794;2022-09-30T15:43:47;2.25;;;1.00;;
21721;SDS011;11023;48.274;7.794;2022-09-30T15:46:30;2.17;;;0.90;;
21721;SDS011;11023;48.274;7.794;2022-09-30T15:49:03;2.80;;;1.25;;
21721;SDS011;11023;48.274;7.794;2022-09-30T15:54:23;1.10;;;1.00;;
21721;SDS011;11023;48.274;7.794;2022-09-30T15:57:02;1.27;;;0.90;;
21721;SDS011;11023;48.274;7.794;2022-09-30T16:00:02;1.10;;;1.00;;
21721;SDS011;11023;48.274;7.794;2022-09-30T16:02:31;4.28;;;1.17;;
21721;SDS011;11023;48.274;7.794;2022-09-30T16:04:57;1.58;;;1.10;;
21721;SDS011;11023;48.274;7.794;2022-09-30T16:07:26;2.70;;;0.93;;
21721;SDS011;11023;48.274;7.794;2022-09-30T16:09:55;1.30;;;1.00;;
21721;SDS011;11023;48.274;7.794;2022-09-30T16:12:24;0.90;;;0.90;;
21721;SDS011;11023;48.274;7.794;2022-09-30T16:15:07;2.67;;;1.30;;
21721;SDS011;11023;48.274;7.794;2022-09-30T16:17:38;3.00;;;1.20;;
21721;SDS011;11023;48.274;7.794;2022-09-30T16:27:57;1.80;;;0.93;;
21721;SDS011;11023;48.274;7.794;2022-09-30T16:30:25;1.40;;;1.00;;
21721;SDS011;11023;48.274;7.794;2022-09-30T16:32:52;2.25;;;1.00;;
21721;SDS011;11023;48.274;7.794;2022-09-30T16:35:22;2.58;;;1.40;;
21721;SDS011;11023;48.274;7.794;2022-09-30T16:37:50;3.17;;;1.30;;
21721;SDS011;11023;48.274;7.794;2022-09-30T16:40:24;1.73;;;1.60;;
21721;SDS011;11023;48.274;7.794;2022-09-30T16:42:51;1.92;;;1.70;;
21721;SDS011;11023;48.274;7.794;2022-09-30T16:45:20;1.98;;;1.50;;
21721;SDS011;11023;48.274;7.794;2022-09-30T16:47:46;1.83;;;1.70;;
21721;SDS011;11023;48.274;7.794;2022-09-30T16:52:57;1.83;;;1.45;;
21721;SDS011;11023;48.274;7.794;2022-09-30T16:55:23;1.65;;;1.20;;
21721;SDS011;11023;48.274;7.794;2022-09-30T16:57:50;3.38;;;1.30;;
21721;SDS011;11023;48.274;7.794;2022-09-30T17:00:17;2.22;;;1.42;;
21721;SDS011;11023;48.274;7.794;2022-09-30T17:02:46;4.47;;;1.50;;
21721;SDS011;11023;48.274;7.794;2022-09-30T17:05:13;1.75;;;1.60;;
21721;SDS011;11023;48.274;7.794;2022-09-30T17:07:43;3.90;;;1.90;;
21721;SDS011;11023;48.274;7.794;2022-09-30T17:10:20;2.42;;;1.85;;
21721;SDS011;11023;48.274;7.794;2022-09-30T17:12:48;3.13;;;1.80;;
21721;SDS011;11023;48.274;7.794;2022-09-30T17:15:14;3.75;;;1.85;;
21721;SDS011;11023;48.274;7.794;2022-09-30T17:17:44;3.90;;;1.80;;
21721;SDS011;11023;48.274;7.794;2022-09-30T17:20:10;2.00;;;1.65;;
21721;SDS011;11023;48.274;7.794;2022-09-30T17:22:36;4.20;;;1.90;;
21721;SDS011;11023;48.274;7.794;2022-09-30T17:25:02;6.20;;;2.17;;
21721;SDS011;11023;48.274;7.794;2022-09-30T17:27:29;3.55;;;1.90;;
21721;SDS011;11023;48.274;7.794;2022-09-30T17:29:54;3.05;;;1.80;;
21721;SDS011;11023;48.274;7.794;2022-09-30T17:32:20;4.20;;;3.35;;
21721;SDS011;11023;48.274;7.794;2022-09-30T17:34:46;14.45;;;11.45;;
21721;SDS011;11023;48.274;7.794;2022-09-30T17:37:11;8.13;;;6.00;;
21721;SDS011;11023;48.274;7.794;2022-09-30T17:39:38;9.30;;;4.38;;
21721;SDS011;11023;48.274;7.794;2022-09-30T17:42:04;8.65;;;3.92;;
21721;SDS011;11023;48.274;7.794;2022-09-30T17:44:49;6.30;;;4.68;;
21721;SDS011;11023;48.274;7.794;2022-09-30T17:47:16;9.20;;;5.75;;
21721;SDS011;11023;48.274;7.794;2022-09-30T17:49:42;14.45;;;6.60;;
21721;SDS011;11023;48.274;7.794;2022-09-30T17:52:07;12.93;;;7.00;;
21721;SDS011;11023;48.274;7.794;2022-09-30T17:54:33;9.52;;;5.80;;
21721;SDS011;11023;48.274;7.794;2022-09-30T17:56:59;10.90;;;6.15;;
21721;SDS011;11023;48.274;7.794;2022-09-30T17:59:25;8.85;;;5.32;;
21721;SDS011;11023;48.274;7.794;2022-09-30T18:01:52;10.35;;;5.95;;
21721;SDS011;11023;48.274;7.794;2022-09-30T18:04:20;6.65;;;5.45;;
21721;SDS011;11023;48.274;7.794;2022-09-30T18:06:48;8.93;;;5.63;;
21721;SDS011;11023;48.274;7.794;2022-09-30T18:09:14;10.80;;;5.55;;
21721;SDS011;11023;48.274;7.794;2022-09-30T18:11:39;8.98;;;6.22;;
21721;SDS011;11023;48.274;7.794;2022-09-30T18:14:05;13.05;;;6.10;;
21721;SDS011;11023;48.274;7.794;2022-09-30T18:16:31;10.68;;;5.95;;
21721;SDS011;11023;48.274;7.794;2022-09-30T18:19:00;9.68;;;5.35;;
21721;SDS011;11023;48.274;7.794;2022-09-30T18:21:29;6.65;;;5.03;;
21721;SDS011;11023;48.274;7.794;2022-09-30T18:23:56;9.73;;;4.28;;
21721;SDS011;11023;48.274;7.794;2022-09-30T18:26:22;5.25;;;3.80;;
21721;SDS011;11023;48.274;7.794;2022-09-30T18:28:50;5.25;;;3.53;;
21721;SDS011;11023;48.274;7.794;2022-09-30T18:31:16;6.63;;;3.55;;
21721;SDS011;11023;48.274;7.794;2022-09-30T18:33:52;6.38;;;2.95;;
21721;SDS011;11023;48.274;7.794;2022-09-30T18:36:22;7.28;;;3.63;;
21721;SDS011;11023;48.274;7.794;2022-09-30T18:38:50;3.50;;;3.20;;
21721;SDS011;11023;48.274;7.794;2022-09-30T18:41:16;4.85;;;3.22;;
21721;SDS011;11023;48.274;7.794;2022-09-30T18:43:42;4.80;;;3.30;;